sensor_id;sensor_type;location;lat;lon;timestamp;P1;durP1;ratioP1;P2;durP2;ratioP2
12625;SDS011;6378;42.684;23.372;2022-12-24T00:01:07;231.03;;;131.27;;
12625;SDS011;6378;42.684;23.372;2022-12-24T00:03:33;263.07;;;141.50;;
12625;SDS011;6378;42.684;23.372;2022-12-24T00:06:04;209.77;;;116.23;;
12625;SDS011;6378;42.684;23.372;2022-12-24T00:08:31;219.17;;;118.73;;
12625;SDS011;6378;42.684;23.372;2022-12-24T00:10:56;196.97;;;101.60;;
12625;SDS011;6378;42.684;23.372;2022-12-24T00:13:22;171.87;;;91.20;;
12625;SDS011;6378;42.684;23.372;2022-12-24T00:15:47;172.40;;;87.10;;
12625;SDS011;6378;42.684;23.372;2022-12-24T00:18:13;141.10;;;75.37;;
12625;SDS011;6378;42.684;23.372;2022-12-24T00:20:39;155.90;;;86.50;;
12625;SDS011;6378;42.684;23.372;2022-12-24T00:23:05;112.20;;;62.27;;
12625;SDS011;6378;42.684;23.372;2022-12-24T00:25:31;106.00;;;62.47;;
12625;SDS011;6378;42.684;23.372;2022-12-24T00:27:56;126.87;;;72.67;;
12625;SDS011;6378;42.684;23.372;2022-12-24T00:30:22;146.37;;;82.73;;
12625;SDS011;6378;42.684;23.372;2022-12-24T00:32:47;171.43;;;97.50;;
12625;SDS011;6378;42.684;23.372;2022-12-24T00:35:13;232.20;;;129.30;;
12625;SDS011;6378;42.684;23.372;2022-12-24T00:37:38;253.17;;;134.87;;
12625;SDS011;6378;42.684;23.372;2022-12-24T00:40:04;222.70;;;120.67;;
12625;SDS011;6378;42.684;23.372;2022-12-24T00:42:29;252.93;;;141.07;;
12625;SDS011;6378;42.684;23.372;2022-12-24T00:44:55;257.10;;;144.40;;
12625;SDS011;6378;42.684;23.372;2022-12-24T00:47:20;254.60;;;139.50;;
12625;SDS011;6378;42.684;23.372;2022-12-24T00:49:46;290.40;;;152.00;;
12625;SDS011;6378;42.684;23.372;2022-12-24T00:52:11;285.87;;;153.00;;
12625;SDS011;6378;42.684;23.372;2022-12-24T00:54:36;292.57;;;156.90;;
12625;SDS011;6378;42.684;23.372;2022-12-24T00:57:02;294.97;;;158.27;;
12625;SDS011;6378;42.684;23.372;2022-12-24T00:59:27;310.83;;;156.10;;
12625;SDS011;6378;42.684;23.372;2022-12-24T01:01:53;308.03;;;176.03;;
12625;SDS011;6378;42.684;23.372;2022-12-24T01:04:18;366.03;;;211.00;;
12625;SDS011;6378;42.684;23.372;2022-12-24T01:07:02;340.00;;;195.67;;
12625;SDS011;6378;42.684;23.372;2022-12-24T01:09:27;318.60;;;181.23;;
12625;SDS011;6378;42.684;23.372;2022-12-24T01:11:53;315.87;;;182.53;;
12625;SDS011;6378;42.684;23.372;2022-12-24T01:14:18;292.67;;;162.40;;
12625;SDS011;6378;42.684;23.372;2022-12-24T01:16:44;299.93;;;162.97;;
12625;SDS011;6378;42.684;23.372;2022-12-24T01:19:10;290.83;;;159.83;;
12625;SDS011;6378;42.684;23.372;2022-12-24T01:21:35;286.50;;;155.63;;
12625;SDS011;6378;42.684;23.372;2022-12-24T01:24:01;246.07;;;138.37;;
12625;SDS011;6378;42.684;23.372;2022-12-24T01:26:26;160.33;;;89.27;;
12625;SDS011;6378;42.684;23.372;2022-12-24T01:28:52;206.13;;;118.27;;
12625;SDS011;6378;42.684;23.372;2022-12-24T01:31:18;219.40;;;124.93;;
12625;SDS011;6378;42.684;23.372;2022-12-24T01:33:44;278.70;;;154.30;;
12625;SDS011;6378;42.684;23.372;2022-12-24T01:36:11;252.57;;;143.40;;
12625;SDS011;6378;42.684;23.372;2022-12-24T01:38:37;255.57;;;143.67;;
12625;SDS011;6378;42.684;23.372;2022-12-24T01:41:03;237.33;;;137.33;;
12625;SDS011;6378;42.684;23.372;2022-12-24T01:43:47;227.67;;;127.53;;
12625;SDS011;6378;42.684;23.372;2022-12-24T01:46:19;218.93;;;124.23;;
12625;SDS011;6378;42.684;23.372;2022-12-24T01:51:29;208.67;;;116.93;;
12625;SDS011;6378;42.684;23.372;2022-12-24T01:54:06;219.17;;;124.80;;
12625;SDS011;6378;42.684;23.372;2022-12-24T01:56:32;245.67;;;136.03;;
12625;SDS011;6378;42.684;23.372;2022-12-24T01:59:04;227.67;;;126.37;;
12625;SDS011;6378;42.684;23.372;2022-12-24T02:01:32;211.97;;;119.00;;
12625;SDS011;6378;42.684;23.372;2022-12-24T02:03:58;227.73;;;124.33;;
12625;SDS011;6378;42.684;23.372;2022-12-24T02:06:25;197.57;;;108.77;;
12625;SDS011;6378;42.684;23.372;2022-12-24T02:08:51;204.40;;;114.77;;
12625;SDS011;6378;42.684;23.372;2022-12-24T02:11:17;212.17;;;111.57;;
12625;SDS011;6378;42.684;23.372;2022-12-24T02:13:54;179.57;;;97.67;;
12625;SDS011;6378;42.684;23.372;2022-12-24T02:19:25;154.83;;;86.47;;
12625;SDS011;6378;42.684;23.372;2022-12-24T02:22:17;161.70;;;86.93;;
12625;SDS011;6378;42.684;23.372;2022-12-24T02:30:29;159.50;;;87.37;;
12625;SDS011;6378;42.684;23.372;2022-12-24T02:33:12;159.40;;;87.00;;
12625;SDS011;6378;42.684;23.372;2022-12-24T02:41:38;152.90;;;80.33;;
12625;SDS011;6378;42.684;23.372;2022-12-24T02:44:26;141.10;;;80.07;;
12625;SDS011;6378;42.684;23.372;2022-12-24T02:46:53;134.80;;;78.63;;
12625;SDS011;6378;42.684;23.372;2022-12-24T02:49:20;137.43;;;82.87;;
12625;SDS011;6378;42.684;23.372;2022-12-24T02:51:46;151.90;;;82.30;;
12625;SDS011;6378;42.684;23.372;2022-12-24T02:54:11;141.90;;;80.47;;
12625;SDS011;6378;42.684;23.372;2022-12-24T02:56:52;148.43;;;83.03;;
12625;SDS011;6378;42.684;23.372;2022-12-24T03:02:05;147.07;;;81.20;;
12625;SDS011;6378;42.684;23.372;2022-12-24T03:04:39;152.03;;;85.50;;
12625;SDS011;6378;42.684;23.372;2022-12-24T03:07:34;172.23;;;90.70;;
12625;SDS011;6378;42.684;23.372;2022-12-24T03:10:15;163.47;;;90.60;;
12625;SDS011;6378;42.684;23.372;2022-12-24T03:12:51;168.87;;;92.93;;
12625;SDS011;6378;42.684;23.372;2022-12-24T03:15:21;196.13;;;105.17;;
12625;SDS011;6378;42.684;23.372;2022-12-24T03:17:49;196.50;;;106.73;;
12625;SDS011;6378;42.684;23.372;2022-12-24T03:20:20;173.77;;;95.67;;
12625;SDS011;6378;42.684;23.372;2022-12-24T03:22:49;187.60;;;98.63;;
12625;SDS011;6378;42.684;23.372;2022-12-24T03:25:15;216.33;;;114.07;;
12625;SDS011;6378;42.684;23.372;2022-12-24T03:27:41;246.10;;;131.07;;
12625;SDS011;6378;42.684;23.372;2022-12-24T03:30:09;220.23;;;118.47;;
12625;SDS011;6378;42.684;23.372;2022-12-24T03:32:38;213.87;;;112.50;;
12625;SDS011;6378;42.684;23.372;2022-12-24T03:35:04;208.37;;;112.10;;
12625;SDS011;6378;42.684;23.372;2022-12-24T03:37:30;203.63;;;107.90;;
12625;SDS011;6378;42.684;23.372;2022-12-24T03:39:56;199.97;;;105.33;;
12625;SDS011;6378;42.684;23.372;2022-12-24T03:42:21;182.03;;;102.63;;
12625;SDS011;6378;42.684;23.372;2022-12-24T03:44:47;193.93;;;104.17;;
12625;SDS011;6378;42.684;23.372;2022-12-24T03:47:12;197.93;;;104.93;;
12625;SDS011;6378;42.684;23.372;2022-12-24T03:49:38;197.70;;;106.03;;
12625;SDS011;6378;42.684;23.372;2022-12-24T03:52:03;190.37;;;104.73;;
12625;SDS011;6378;42.684;23.372;2022-12-24T03:54:29;195.90;;;104.57;;
12625;SDS011;6378;42.684;23.372;2022-12-24T03:56:54;184.70;;;101.80;;
12625;SDS011;6378;42.684;23.372;2022-12-24T03:59:19;191.00;;;101.10;;
12625;SDS011;6378;42.684;23.372;2022-12-24T04:01:45;178.17;;;95.93;;
12625;SDS011;6378;42.684;23.372;2022-12-24T04:04:10;168.77;;;94.00;;
12625;SDS011;6378;42.684;23.372;2022-12-24T04:06:36;173.87;;;94.67;;
12625;SDS011;6378;42.684;23.372;2022-12-24T04:09:01;169.90;;;91.90;;
12625;SDS011;6378;42.684;23.372;2022-12-24T04:11:29;175.87;;;96.30;;
12625;SDS011;6378;42.684;23.372;2022-12-24T04:13:56;166.53;;;95.33;;
12625;SDS011;6378;42.684;23.372;2022-12-24T04:16:21;171.53;;;92.10;;
12625;SDS011;6378;42.684;23.372;2022-12-24T04:18:47;169.83;;;91.47;;
12625;SDS011;6378;42.684;23.372;2022-12-24T04:21:13;170.10;;;92.90;;
12625;SDS011;6378;42.684;23.372;2022-12-24T04:23:39;162.90;;;92.77;;
12625;SDS011;6378;42.684;23.372;2022-12-24T04:26:06;146.30;;;83.00;;
12625;SDS011;6378;42.684;23.372;2022-12-24T04:28:33;141.10;;;75.43;;
12625;SDS011;6378;42.684;23.372;2022-12-24T04:31:03;142.57;;;80.43;;
12625;SDS011;6378;42.684;23.372;2022-12-24T04:33:30;164.00;;;91.83;;
12625;SDS011;6378;42.684;23.372;2022-12-24T04:35:56;140.10;;;77.83;;
12625;SDS011;6378;42.684;23.372;2022-12-24T04:38:22;172.23;;;95.93;;
12625;SDS011;6378;42.684;23.372;2022-12-24T04:40:48;155.77;;;90.37;;
12625;SDS011;6378;42.684;23.372;2022-12-24T04:43:22;170.50;;;95.93;;
12625;SDS011;6378;42.684;23.372;2022-12-24T04:45:48;186.80;;;104.90;;
12625;SDS011;6378;42.684;23.372;2022-12-24T04:48:13;193.40;;;108.03;;
12625;SDS011;6378;42.684;23.372;2022-12-24T04:50:39;191.43;;;106.67;;
12625;SDS011;6378;42.684;23.372;2022-12-24T04:53:04;188.57;;;105.30;;
12625;SDS011;6378;42.684;23.372;2022-12-24T04:55:29;200.37;;;109.90;;
12625;SDS011;6378;42.684;23.372;2022-12-24T04:57:55;191.70;;;106.87;;
12625;SDS011;6378;42.684;23.372;2022-12-24T05:00:20;195.90;;;110.00;;
12625;SDS011;6378;42.684;23.372;2022-12-24T05:02:46;208.00;;;114.80;;
12625;SDS011;6378;42.684;23.372;2022-12-24T05:05:11;198.47;;;106.60;;
12625;SDS011;6378;42.684;23.372;2022-12-24T05:07:36;195.87;;;110.63;;
12625;SDS011;6378;42.684;23.372;2022-12-24T05:10:02;250.70;;;137.13;;
12625;SDS011;6378;42.684;23.372;2022-12-24T05:12:27;247.40;;;136.20;;
12625;SDS011;6378;42.684;23.372;2022-12-24T05:14:53;215.47;;;120.80;;
12625;SDS011;6378;42.684;23.372;2022-12-24T05:17:19;240.17;;;125.23;;
12625;SDS011;6378;42.684;23.372;2022-12-24T05:19:44;277.77;;;145.43;;
12625;SDS011;6378;42.684;23.372;2022-12-24T05:22:09;242.23;;;128.40;;
12625;SDS011;6378;42.684;23.372;2022-12-24T05:24:53;294.30;;;152.97;;
12625;SDS011;6378;42.684;23.372;2022-12-24T05:27:37;299.13;;;159.17;;
12625;SDS011;6378;42.684;23.372;2022-12-24T05:30:03;274.53;;;147.37;;
12625;SDS011;6378;42.684;23.372;2022-12-24T05:32:29;273.33;;;143.27;;
12625;SDS011;6378;42.684;23.372;2022-12-24T05:34:54;208.80;;;126.83;;
12625;SDS011;6378;42.684;23.372;2022-12-24T05:37:20;298.90;;;158.70;;
12625;SDS011;6378;42.684;23.372;2022-12-24T05:39:45;289.07;;;156.33;;
12625;SDS011;6378;42.684;23.372;2022-12-24T05:42:11;286.80;;;154.27;;
12625;SDS011;6378;42.684;23.372;2022-12-24T05:44:36;219.17;;;124.67;;
12625;SDS011;6378;42.684;23.372;2022-12-24T05:47:01;290.93;;;146.70;;
12625;SDS011;6378;42.684;23.372;2022-12-24T05:49:27;275.77;;;142.50;;
12625;SDS011;6378;42.684;23.372;2022-12-24T05:51:52;258.40;;;133.43;;
12625;SDS011;6378;42.684;23.372;2022-12-24T05:54:18;261.80;;;133.73;;
12625;SDS011;6378;42.684;23.372;2022-12-24T05:56:43;244.90;;;130.77;;
12625;SDS011;6378;42.684;23.372;2022-12-24T05:59:09;185.13;;;107.90;;
12625;SDS011;6378;42.684;23.372;2022-12-24T06:01:34;236.57;;;116.87;;
12625;SDS011;6378;42.684;23.372;2022-12-24T06:04:00;206.17;;;108.07;;
12625;SDS011;6378;42.684;23.372;2022-12-24T06:06:26;204.23;;;110.10;;
12625;SDS011;6378;42.684;23.372;2022-12-24T06:08:52;214.20;;;106.93;;
12625;SDS011;6378;42.684;23.372;2022-12-24T06:11:23;203.53;;;100.20;;
12625;SDS011;6378;42.684;23.372;2022-12-24T06:13:51;199.57;;;96.43;;
12625;SDS011;6378;42.684;23.372;2022-12-24T06:16:17;166.90;;;83.37;;
12625;SDS011;6378;42.684;23.372;2022-12-24T06:18:44;141.77;;;69.70;;
12625;SDS011;6378;42.684;23.372;2022-12-24T06:21:09;124.80;;;65.73;;
12625;SDS011;6378;42.684;23.372;2022-12-24T06:23:36;180.70;;;84.00;;
12625;SDS011;6378;42.684;23.372;2022-12-24T06:26:04;177.23;;;87.03;;
12625;SDS011;6378;42.684;23.372;2022-12-24T06:28:31;248.03;;;110.30;;
12625;SDS011;6378;42.684;23.372;2022-12-24T06:30:58;210.30;;;99.10;;
12625;SDS011;6378;42.684;23.372;2022-12-24T06:33:28;274.57;;;121.33;;
12625;SDS011;6378;42.684;23.372;2022-12-24T06:35:54;290.37;;;126.77;;
12625;SDS011;6378;42.684;23.372;2022-12-24T06:38:19;250.10;;;112.97;;
12625;SDS011;6378;42.684;23.372;2022-12-24T06:40:45;329.20;;;155.13;;
12625;SDS011;6378;42.684;23.372;2022-12-24T06:43:11;271.13;;;120.20;;
12625;SDS011;6378;42.684;23.372;2022-12-24T06:45:38;240.03;;;111.13;;
12625;SDS011;6378;42.684;23.372;2022-12-24T06:48:03;152.97;;;83.93;;
12625;SDS011;6378;42.684;23.372;2022-12-24T06:50:31;220.45;;;109.57;;
12625;SDS011;6378;42.684;23.372;2022-12-24T06:52:57;171.07;;;84.93;;
12625;SDS011;6378;42.684;23.372;2022-12-24T06:55:23;190.90;;;90.90;;
12625;SDS011;6378;42.684;23.372;2022-12-24T06:57:48;176.10;;;88.10;;
12625;SDS011;6378;42.684;23.372;2022-12-24T07:00:13;152.40;;;79.73;;
12625;SDS011;6378;42.684;23.372;2022-12-24T07:02:43;163.20;;;82.27;;
12625;SDS011;6378;42.684;23.372;2022-12-24T07:05:09;163.33;;;85.20;;
12625;SDS011;6378;42.684;23.372;2022-12-24T07:07:36;135.43;;;74.97;;
12625;SDS011;6378;42.684;23.372;2022-12-24T07:10:07;137.43;;;69.90;;
12625;SDS011;6378;42.684;23.372;2022-12-24T07:12:35;124.67;;;67.07;;
12625;SDS011;6378;42.684;23.372;2022-12-24T07:15:00;125.43;;;67.47;;
12625;SDS011;6378;42.684;23.372;2022-12-24T07:17:26;104.30;;;58.70;;
12625;SDS011;6378;42.684;23.372;2022-12-24T07:19:51;88.67;;;50.83;;
12625;SDS011;6378;42.684;23.372;2022-12-24T07:22:16;88.13;;;52.47;;
12625;SDS011;6378;42.684;23.372;2022-12-24T07:24:42;72.30;;;43.40;;
12625;SDS011;6378;42.684;23.372;2022-12-24T07:27:07;67.60;;;42.77;;
12625;SDS011;6378;42.684;23.372;2022-12-24T07:29:33;66.67;;;42.40;;
12625;SDS011;6378;42.684;23.372;2022-12-24T07:31:58;69.30;;;42.33;;
12625;SDS011;6378;42.684;23.372;2022-12-24T07:34:24;69.67;;;42.43;;
12625;SDS011;6378;42.684;23.372;2022-12-24T07:36:49;69.07;;;41.37;;
12625;SDS011;6378;42.684;23.372;2022-12-24T07:39:15;72.33;;;43.03;;
12625;SDS011;6378;42.684;23.372;2022-12-24T07:41:40;75.23;;;45.03;;
12625;SDS011;6378;42.684;23.372;2022-12-24T07:44:06;99.30;;;51.83;;
12625;SDS011;6378;42.684;23.372;2022-12-24T07:46:31;118.77;;;60.83;;
12625;SDS011;6378;42.684;23.372;2022-12-24T07:48:56;81.03;;;47.93;;
12625;SDS011;6378;42.684;23.372;2022-12-24T07:51:22;68.97;;;42.77;;
12625;SDS011;6378;42.684;23.372;2022-12-24T07:53:47;76.50;;;42.83;;
12625;SDS011;6378;42.684;23.372;2022-12-24T07:56:16;66.93;;;39.83;;
12625;SDS011;6378;42.684;23.372;2022-12-24T07:58:42;59.70;;;37.27;;
12625;SDS011;6378;42.684;23.372;2022-12-24T08:01:08;68.13;;;40.90;;
12625;SDS011;6378;42.684;23.372;2022-12-24T08:03:33;70.30;;;40.33;;
12625;SDS011;6378;42.684;23.372;2022-12-24T08:05:59;64.90;;;41.47;;
12625;SDS011;6378;42.684;23.372;2022-12-24T08:08:25;65.70;;;40.67;;
12625;SDS011;6378;42.684;23.372;2022-12-24T08:10:50;70.80;;;49.13;;
12625;SDS011;6378;42.684;23.372;2022-12-24T08:13:16;67.43;;;44.10;;
12625;SDS011;6378;42.684;23.372;2022-12-24T08:15:42;67.50;;;43.57;;
12625;SDS011;6378;42.684;23.372;2022-12-24T08:18:08;71.77;;;46.17;;
12625;SDS011;6378;42.684;23.372;2022-12-24T08:20:36;77.07;;;49.60;;
12625;SDS011;6378;42.684;23.372;2022-12-24T08:23:02;86.87;;;54.47;;
12625;SDS011;6378;42.684;23.372;2022-12-24T08:25:28;101.03;;;61.50;;
12625;SDS011;6378;42.684;23.372;2022-12-24T08:27:53;103.20;;;64.03;;
12625;SDS011;6378;42.684;23.372;2022-12-24T08:30:19;121.67;;;72.20;;
12625;SDS011;6378;42.684;23.372;2022-12-24T08:32:44;110.90;;;70.50;;
12625;SDS011;6378;42.684;23.372;2022-12-24T08:35:09;125.90;;;77.90;;
12625;SDS011;6378;42.684;23.372;2022-12-24T08:37:35;117.07;;;70.77;;
12625;SDS011;6378;42.684;23.372;2022-12-24T08:40:01;97.23;;;60.20;;
12625;SDS011;6378;42.684;23.372;2022-12-24T08:42:26;95.03;;;55.27;;
12625;SDS011;6378;42.684;23.372;2022-12-24T08:44:51;92.90;;;57.37;;
12625;SDS011;6378;42.684;23.372;2022-12-24T08:47:17;83.57;;;51.47;;
12625;SDS011;6378;42.684;23.372;2022-12-24T08:49:42;80.10;;;48.47;;
12625;SDS011;6378;42.684;23.372;2022-12-24T08:52:08;79.33;;;47.67;;
12625;SDS011;6378;42.684;23.372;2022-12-24T08:54:33;76.03;;;43.40;;
12625;SDS011;6378;42.684;23.372;2022-12-24T08:56:59;70.73;;;42.20;;
12625;SDS011;6378;42.684;23.372;2022-12-24T08:59:24;63.60;;;40.67;;
12625;SDS011;6378;42.684;23.372;2022-12-24T09:01:49;73.43;;;43.20;;
12625;SDS011;6378;42.684;23.372;2022-12-24T09:04:15;69.93;;;44.20;;
12625;SDS011;6378;42.684;23.372;2022-12-24T09:06:40;77.73;;;45.80;;
12625;SDS011;6378;42.684;23.372;2022-12-24T09:09:06;79.57;;;46.17;;
12625;SDS011;6378;42.684;23.372;2022-12-24T09:11:32;67.33;;;41.10;;
12625;SDS011;6378;42.684;23.372;2022-12-24T09:13:59;68.97;;;41.10;;
12625;SDS011;6378;42.684;23.372;2022-12-24T09:16:24;69.57;;;41.33;;
12625;SDS011;6378;42.684;23.372;2022-12-24T09:18:49;78.40;;;46.60;;
12625;SDS011;6378;42.684;23.372;2022-12-24T09:21:15;80.17;;;47.23;;
12625;SDS011;6378;42.684;23.372;2022-12-24T09:23:42;77.57;;;46.60;;
12625;SDS011;6378;42.684;23.372;2022-12-24T09:26:09;79.17;;;47.20;;
12625;SDS011;6378;42.684;23.372;2022-12-24T09:28:38;75.27;;;46.83;;
12625;SDS011;6378;42.684;23.372;2022-12-24T09:31:03;73.77;;;46.27;;
12625;SDS011;6378;42.684;23.372;2022-12-24T09:33:30;88.03;;;49.13;;
12625;SDS011;6378;42.684;23.372;2022-12-24T09:35:58;82.20;;;48.53;;
12625;SDS011;6378;42.684;23.372;2022-12-24T09:38:23;82.03;;;49.80;;
12625;SDS011;6378;42.684;23.372;2022-12-24T09:40:49;83.43;;;46.43;;
12625;SDS011;6378;42.684;23.372;2022-12-24T09:43:17;77.03;;;47.70;;
12625;SDS011;6378;42.684;23.372;2022-12-24T09:45:49;89.33;;;50.20;;
12625;SDS011;6378;42.684;23.372;2022-12-24T09:48:29;88.87;;;52.47;;
12625;SDS011;6378;42.684;23.372;2022-12-24T09:51:06;107.27;;;62.50;;
12625;SDS011;6378;42.684;23.372;2022-12-24T09:56:22;105.93;;;59.80;;
12625;SDS011;6378;42.684;23.372;2022-12-24T09:59:03;102.00;;;56.33;;
12625;SDS011;6378;42.684;23.372;2022-12-24T10:01:31;94.00;;;54.50;;
12625;SDS011;6378;42.684;23.372;2022-12-24T10:04:00;105.00;;;57.53;;
12625;SDS011;6378;42.684;23.372;2022-12-24T10:11:42;92.37;;;53.97;;
12625;SDS011;6378;42.684;23.372;2022-12-24T10:17:45;85.43;;;48.80;;
12625;SDS011;6378;42.684;23.372;2022-12-24T10:20:29;89.73;;;51.80;;
12625;SDS011;6378;42.684;23.372;2022-12-24T10:26:31;92.90;;;51.67;;
12625;SDS011;6378;42.684;23.372;2022-12-24T10:29:09;98.67;;;56.77;;
12625;SDS011;6378;42.684;23.372;2022-12-24T10:34:32;97.20;;;54.63;;
12625;SDS011;6378;42.684;23.372;2022-12-24T10:37:16;103.00;;;54.23;;
12625;SDS011;6378;42.684;23.372;2022-12-24T10:39:46;105.67;;;58.70;;
12625;SDS011;6378;42.684;23.372;2022-12-24T10:42:12;100.13;;;58.67;;
12625;SDS011;6378;42.684;23.372;2022-12-24T10:44:39;93.10;;;57.10;;
12625;SDS011;6378;42.684;23.372;2022-12-24T10:47:05;91.53;;;55.43;;
12625;SDS011;6378;42.684;23.372;2022-12-24T10:49:38;86.37;;;53.17;;
12625;SDS011;6378;42.684;23.372;2022-12-24T10:52:10;96.70;;;52.00;;
12625;SDS011;6378;42.684;23.372;2022-12-24T10:55:03;73.17;;;44.13;;
12625;SDS011;6378;42.684;23.372;2022-12-24T10:57:42;67.60;;;39.53;;
12625;SDS011;6378;42.684;23.372;2022-12-24T11:00:20;70.43;;;41.10;;
12625;SDS011;6378;42.684;23.372;2022-12-24T11:02:49;66.67;;;41.53;;
12625;SDS011;6378;42.684;23.372;2022-12-24T11:05:34;77.03;;;42.77;;
12625;SDS011;6378;42.684;23.372;2022-12-24T11:10:41;69.80;;;38.83;;
12625;SDS011;6378;42.684;23.372;2022-12-24T11:13:23;69.37;;;38.83;;
12625;SDS011;6378;42.684;23.372;2022-12-24T11:18:47;64.43;;;37.13;;
12625;SDS011;6378;42.684;23.372;2022-12-24T11:21:18;67.17;;;38.03;;
12625;SDS011;6378;42.684;23.372;2022-12-24T11:23:53;54.83;;;35.80;;
12625;SDS011;6378;42.684;23.372;2022-12-24T11:26:23;58.03;;;36.77;;
12625;SDS011;6378;42.684;23.372;2022-12-24T11:29:32;61.90;;;38.50;;
12625;SDS011;6378;42.684;23.372;2022-12-24T11:31:47;61.77;;;37.10;;
12625;SDS011;6378;42.684;23.372;2022-12-24T11:39:50;49.53;;;32.87;;
12625;SDS011;6378;42.684;23.372;2022-12-24T11:42:25;68.47;;;34.97;;
12625;SDS011;6378;42.684;23.372;2022-12-24T11:44:55;62.03;;;35.93;;
12625;SDS011;6378;42.684;23.372;2022-12-24T11:53:12;50.40;;;31.60;;
12625;SDS011;6378;42.684;23.372;2022-12-24T12:03:53;43.07;;;26.20;;
12625;SDS011;6378;42.684;23.372;2022-12-24T12:06:27;37.33;;;24.10;;
12625;SDS011;6378;42.684;23.372;2022-12-24T12:09:09;35.47;;;24.10;;
12625;SDS011;6378;42.684;23.372;2022-12-24T12:11:49;40.00;;;26.03;;
12625;SDS011;6378;42.684;23.372;2022-12-24T12:14:20;40.33;;;25.53;;
12625;SDS011;6378;42.684;23.372;2022-12-24T12:16:57;42.33;;;29.48;;
12625;SDS011;6378;42.684;23.372;2022-12-24T12:19:47;36.57;;;25.00;;
12625;SDS011;6378;42.684;23.372;2022-12-24T12:25:05;44.23;;;26.27;;
12625;SDS011;6378;42.684;23.372;2022-12-24T12:27:43;43.93;;;27.97;;
12625;SDS011;6378;42.684;23.372;2022-12-24T12:30:15;42.97;;;27.77;;
12625;SDS011;6378;42.684;23.372;2022-12-24T12:35:35;89.43;;;54.00;;
12625;SDS011;6378;42.684;23.372;2022-12-24T12:38:05;104.67;;;61.43;;
12625;SDS011;6378;42.684;23.372;2022-12-24T12:51:25;125.57;;;72.73;;
12625;SDS011;6378;42.684;23.372;2022-12-24T12:56:48;120.10;;;68.87;;
12625;SDS011;6378;42.684;23.372;2022-12-24T12:59:19;108.20;;;63.53;;
12625;SDS011;6378;42.684;23.372;2022-12-24T13:07:55;98.67;;;56.97;;
12625;SDS011;6378;42.684;23.372;2022-12-24T13:18:58;83.27;;;51.33;;
12625;SDS011;6378;42.684;23.372;2022-12-24T13:21:44;79.33;;;47.57;;
12625;SDS011;6378;42.684;23.372;2022-12-24T13:24:16;80.23;;;48.83;;
12625;SDS011;6378;42.684;23.372;2022-12-24T13:27:00;78.87;;;49.07;;
12625;SDS011;6378;42.684;23.372;2022-12-24T13:34:50;78.40;;;48.83;;
12625;SDS011;6378;42.684;23.372;2022-12-24T13:37:22;82.47;;;49.00;;
12625;SDS011;6378;42.684;23.372;2022-12-24T13:42:51;74.03;;;44.10;;
12625;SDS011;6378;42.684;23.372;2022-12-24T13:58:25;68.97;;;42.17;;
12625;SDS011;6378;42.684;23.372;2022-12-24T14:00:57;65.00;;;42.83;;
12625;SDS011;6378;42.684;23.372;2022-12-24T14:03:33;71.43;;;45.07;;
12625;SDS011;6378;42.684;23.372;2022-12-24T14:06:07;69.80;;;44.83;;
12625;SDS011;6378;42.684;23.372;2022-12-24T14:08:48;69.73;;;43.83;;
12625;SDS011;6378;42.684;23.372;2022-12-24T14:11:16;75.23;;;44.87;;
12625;SDS011;6378;42.684;23.372;2022-12-24T14:18:41;74.97;;;43.47;;
12625;SDS011;6378;42.684;23.372;2022-12-24T14:21:14;83.07;;;49.23;;
12625;SDS011;6378;42.684;23.372;2022-12-24T14:23:55;74.87;;;46.83;;
12625;SDS011;6378;42.684;23.372;2022-12-24T14:26:26;75.03;;;47.30;;
12625;SDS011;6378;42.684;23.372;2022-12-24T14:28:55;74.77;;;47.97;;
12625;SDS011;6378;42.684;23.372;2022-12-24T14:31:26;85.27;;;52.40;;
12625;SDS011;6378;42.684;23.372;2022-12-24T14:33:51;75.10;;;46.40;;
12625;SDS011;6378;42.684;23.372;2022-12-24T14:36:29;90.35;;;58.10;;
12625;SDS011;6378;42.684;23.372;2022-12-24T14:38:54;82.70;;;52.40;;
12625;SDS011;6378;42.684;23.372;2022-12-24T14:41:30;79.40;;;48.83;;
12625;SDS011;6378;42.684;23.372;2022-12-24T14:52:39;83.70;;;52.03;;
12625;SDS011;6378;42.684;23.372;2022-12-24T14:58:15;87.83;;;52.93;;
12625;SDS011;6378;42.684;23.372;2022-12-24T15:00:47;81.87;;;52.70;;
12625;SDS011;6378;42.684;23.372;2022-12-24T15:03:14;83.33;;;53.40;;
12625;SDS011;6378;42.684;23.372;2022-12-24T15:05:44;80.30;;;50.77;;
12625;SDS011;6378;42.684;23.372;2022-12-24T15:08:30;77.73;;;49.27;;
12625;SDS011;6378;42.684;23.372;2022-12-24T15:11:06;70.50;;;45.43;;
12625;SDS011;6378;42.684;23.372;2022-12-24T15:13:53;66.60;;;43.70;;
12625;SDS011;6378;42.684;23.372;2022-12-24T15:16:25;64.90;;;42.27;;
12625;SDS011;6378;42.684;23.372;2022-12-24T15:19:01;68.87;;;45.47;;
12625;SDS011;6378;42.684;23.372;2022-12-24T15:21:36;54.50;;;35.13;;
12625;SDS011;6378;42.684;23.372;2022-12-24T15:31:11;72.67;;;46.67;;
12625;SDS011;6378;42.684;23.372;2022-12-24T15:33:54;47.57;;;28.23;;
12625;SDS011;6378;42.684;23.372;2022-12-24T15:36:37;50.90;;;30.37;;
12625;SDS011;6378;42.684;23.372;2022-12-24T15:39:07;175.73;;;105.90;;
12625;SDS011;6378;42.684;23.372;2022-12-24T15:41:46;281.90;;;163.17;;
12625;SDS011;6378;42.684;23.372;2022-12-24T15:47:45;280.47;;;161.83;;
12625;SDS011;6378;42.684;23.372;2022-12-24T15:52:41;228.30;;;132.93;;
12625;SDS011;6378;42.684;23.372;2022-12-24T15:58:16;235.37;;;136.80;;
12625;SDS011;6378;42.684;23.372;2022-12-24T16:03:38;207.17;;;121.43;;
12625;SDS011;6378;42.684;23.372;2022-12-24T16:06:06;193.27;;;113.80;;
12625;SDS011;6378;42.684;23.372;2022-12-24T16:08:35;196.00;;;112.17;;
12625;SDS011;6378;42.684;23.372;2022-12-24T16:13:30;200.77;;;119.23;;
12625;SDS011;6378;42.684;23.372;2022-12-24T16:16:02;202.67;;;121.10;;
12625;SDS011;6378;42.684;23.372;2022-12-24T16:18:41;208.97;;;121.27;;
12625;SDS011;6378;42.684;23.372;2022-12-24T16:21:38;195.97;;;118.27;;
12625;SDS011;6378;42.684;23.372;2022-12-24T16:24:24;156.53;;;91.03;;
12625;SDS011;6378;42.684;23.372;2022-12-24T16:26:55;167.13;;;100.33;;
12625;SDS011;6378;42.684;23.372;2022-12-24T16:29:21;179.80;;;107.33;;
12625;SDS011;6378;42.684;23.372;2022-12-24T16:31:52;172.10;;;102.37;;
12625;SDS011;6378;42.684;23.372;2022-12-24T16:34:26;202.43;;;118.17;;
12625;SDS011;6378;42.684;23.372;2022-12-24T16:36:56;233.57;;;136.83;;
12625;SDS011;6378;42.684;23.372;2022-12-24T16:39:23;270.67;;;162.60;;
12625;SDS011;6378;42.684;23.372;2022-12-24T16:41:58;218.73;;;134.47;;
12625;SDS011;6378;42.684;23.372;2022-12-24T16:44:44;214.93;;;132.03;;
12625;SDS011;6378;42.684;23.372;2022-12-24T16:47:11;211.10;;;127.00;;
12625;SDS011;6378;42.684;23.372;2022-12-24T16:49:39;221.63;;;138.27;;
12625;SDS011;6378;42.684;23.372;2022-12-24T16:52:05;241.97;;;150.70;;
12625;SDS011;6378;42.684;23.372;2022-12-24T16:54:36;278.23;;;165.70;;
12625;SDS011;6378;42.684;23.372;2022-12-24T16:57:04;254.80;;;157.50;;